KGLD/GLD METAR and TAF weather

Enter ICAO airport designator
Station Type Date Time Source
KGLD METAR 2019/06/20 07:53 UTC NOAA

KGLD 200753Z AUTO 19012G22KT 10SM CLR 17/14 A2974 RMK AO2 SLP032 T01670139


Station Type Date Time Source
KGLD Decoded METAR 2019/06/20 07:53 UTC NOAA

GOODLAND RENNER FIELD, KS, United States (KGLD) 39-22N 101-42W 1114M
Jun 20, 2019 - 03:53 AM EDT / 2019.06.20 0753 UTC
Wind: from the S (190 degrees) at 14 MPH (12 KT) gusting to 25 MPH (22 KT):0
Visibility: 10 mile(s):0
Sky conditions: clear
Temperature: 62.1 F (16.7 C)
Dew Point: 57.0 F (13.9 C)
Relative Humidity: 83%
Pressure (altimeter): 29.74 in. Hg (1007 hPa)
ob: KGLD 200753Z AUTO 19012G22KT 10SM CLR 17/14 A2974 RMK AO2 SLP032 T01670139
cycle: 8

Station Type Date Time Source
KGLD TAF 2019/06/20 06:27 UTC NOAA

TAF KGLD 200524Z 2006/2106 20010KT P6SM SKC
FM201500 35012KT P6SM SKC
FM202100 13010KT P6SM SCT100 BKN200 PROB30 2100/2103 -TSRA SCT050CB BKN150

Example: see airport list